»·PEaware :: N106MR KSEA-KPDX

N106MR :: KSEA-KPDX

FLIGHT INFORMATION

Flight Status: Arrived
Operator: Privately registered:
United States
More flights under this callsign
Pilot: Michael R. (16974)
Aircraft: MITSUBISHI MU-2 MARQUISE
(MU2)
More flights by this aircraft type
Origin: KSEA Seattle-Tacoma Intl
United States
Destination: KPDX Portland Intl
United States
More flights between these airports :: More routes between these airports
Route: +ATOME2 BUWZO KRATR2
File this flight plan on PilotEdge
Remarks:
Altitude:
(Current/Filed)
19,000ft
Speed:
(Current/Filed)
270kts
Departed: 03-Jan-18 07:52 PM
Arrived: 03-Jan-18 08:30 PM
Distance/Time
Traveled:
112nm/0:38
Distance/Time
To Go:
Arrived

Flight Plot

Page will automatically refresh every two minutes.

Flight plan parsing failed; only flown route is shown


Map Options




Map Legend


Flown Route
Filed Route
Departure Airport
Arrival Airport
Navaid (VOR, NDB)
Fix

Horizontal Profiles

Position Reports

Time Latitude Longitude Heading Altitude Ground
Speed
03-Jan-18 19:22 47.439010 -122.315054 55 348ft 0kts
03-Jan-18 19:23 47.439010 -122.315054 55 348ft 0kts
03-Jan-18 19:24 47.439010 -122.315054 55 348ft 0kts
03-Jan-18 19:25 47.439010 -122.315054 55 348ft 0kts
03-Jan-18 19:26 47.439010 -122.315054 55 348ft 0kts
03-Jan-18 19:27 47.439010 -122.315054 55 348ft 0kts
03-Jan-18 19:28 47.439010 -122.315054 55 348ft 0kts
03-Jan-18 19:29 47.439010 -122.315054 55 348ft 0kts
03-Jan-18 19:30 47.439010 -122.315054 55 348ft 0kts
03-Jan-18 19:31 47.439010 -122.315054 55 348ft 0kts
03-Jan-18 19:32 47.439010 -122.315054 55 348ft 0kts
03-Jan-18 19:33 47.439010 -122.315054 55 348ft 0kts
03-Jan-18 19:34 47.439010 -122.315054 55 348ft 0kts
03-Jan-18 19:35 47.439010 -122.315054 55 348ft 0kts
03-Jan-18 19:36 47.439010 -122.315054 55 348ft 0kts
03-Jan-18 19:37 47.439010 -122.315054 55 348ft 0kts
03-Jan-18 19:38 47.439010 -122.315054 55 348ft 0kts
03-Jan-18 19:39 47.439010 -122.315054 55 348ft 0kts
03-Jan-18 19:40 47.439010 -122.315054 55 348ft 0kts
03-Jan-18 19:41 47.439010 -122.315054 55 348ft 0kts
03-Jan-18 19:42 47.439010 -122.315054 55 348ft 0kts
03-Jan-18 19:43 47.439010 -122.315054 55 348ft 0kts
03-Jan-18 19:44 47.439010 -122.315054 55 348ft 0kts
03-Jan-18 19:45 47.439010 -122.315054 55 348ft 0kts
03-Jan-18 19:46 47.439010 -122.315054 55 348ft 0kts
03-Jan-18 19:47 47.439010 -122.315054 55 348ft 0kts
03-Jan-18 19:48 47.439010 -122.315054 55 348ft 0kts
03-Jan-18 19:49 47.439010 -122.315054 55 348ft 0kts
03-Jan-18 19:50 47.439281 -122.314612 30 350ft 7kts
03-Jan-18 19:51 47.440659 -122.316723 271 349ft 0kts
03-Jan-18 19:52 47.440659 -122.316722 271 349ft 0kts
03-Jan-18 19:53 47.440659 -122.316722 271 349ft 0kts
03-Jan-18 19:54 47.440659 -122.316722 271 349ft 0kts
03-Jan-18 19:55 47.440659 -122.316722 271 349ft 0kts
03-Jan-18 19:56 47.440659 -122.316732 272 349ft 0kts
03-Jan-18 19:57 47.441464 -122.318058 359 347ft 0kts
03-Jan-18 19:58 47.471358 -122.316235 3 1648ft 152kts
03-Jan-18 19:59 47.514399 -122.313649 357 4465ft 164kts
03-Jan-18 20:00 47.563638 -122.313684 356 6886ft 195kts
03-Jan-18 20:01 47.606372 -122.359407 292 8986ft 222kts
03-Jan-18 20:02 47.578921 -122.424853 167 10644ft 246kts
03-Jan-18 20:03 47.519972 -122.387351 170 12967ft 241kts
03-Jan-18 20:04 47.455249 -122.374966 176 15280ft 242kts
03-Jan-18 20:05 47.391588 -122.366380 176 17907ft 219kts
03-Jan-18 20:06 47.328420 -122.358200 176 19019ft 263kts
03-Jan-18 20:07 47.250814 -122.348095 176 19010ft 302kts
03-Jan-18 20:08 47.167082 -122.337257 176 19003ft 296kts
03-Jan-18 20:09 47.086206 -122.326866 176 19005ft 291kts
03-Jan-18 20:10 47.005485 -122.316514 175 19006ft 294kts
03-Jan-18 20:11 46.923581 -122.309648 180 19006ft 297kts
03-Jan-18 20:12 46.844153 -122.309684 180 19008ft 298kts
03-Jan-18 20:13 46.761660 -122.309684 180 19008ft 299kts
03-Jan-18 20:14 46.678725 -122.309683 180 19007ft 300kts
03-Jan-18 20:15 46.596061 -122.309681 180 19007ft 301kts
03-Jan-18 20:16 46.527028 -122.309680 180 19007ft 301kts
03-Jan-18 20:17 46.429304 -122.309656 180 16983ft 293kts
03-Jan-18 20:18 46.364915 -122.309688 180 15648ft 264kts
03-Jan-18 20:19 46.293000 -122.309702 180 13675ft 258kts
03-Jan-18 20:20 46.213515 -122.333861 201 11300ft 253kts
03-Jan-18 20:21 46.149898 -122.369479 200 9983ft 223kts
03-Jan-18 20:22 46.107346 -122.393205 200 9975ft 174kts
03-Jan-18 20:23 46.065212 -122.416291 200 9350ft 174kts
03-Jan-18 20:24 46.015434 -122.442977 200 8605ft 206kts
03-Jan-18 20:25 45.959037 -122.473293 200 7701ft 227kts
03-Jan-18 20:26 45.907113 -122.518373 222 6999ft 206kts
03-Jan-18 20:27 45.863339 -122.573929 221 5683ft 224kts
03-Jan-18 20:28 45.818592 -122.630474 221 4997ft 214kts
03-Jan-18 20:29 45.773491 -122.687647 223 4945ft 225kts
03-Jan-18 20:30 45.732605 -122.751552 224 4306ft 223kts
03-Jan-18 20:31 45.682817 -122.780302 181 2635ft 177kts
03-Jan-18 20:32 45.649850 -122.742785 114 1191ft 140kts
03-Jan-18 20:33 45.632294 -122.692314 119 1068ft 155kts
03-Jan-18 20:34 45.610248 -122.635633 115 702ft 185kts
03-Jan-18 20:35 45.589196 -122.579831 113 20ft 60kts
03-Jan-18 20:36 45.583614 -122.568974 204 20ft 0kts
03-Jan-18 20:37 45.583336 -122.569330 292 20ft 14kts
03-Jan-18 20:38 45.585392 -122.577062 207 20ft 13kts
03-Jan-18 20:39 45.584507 -122.576254 304 20ft 0kts
03-Jan-18 20:40 45.584507 -122.576254 304 20ft 0kts
03-Jan-18 20:41 45.584507 -122.576254 304 20ft 0kts
03-Jan-18 20:42 45.584507 -122.576254 304 20ft 0kts
03-Jan-18 20:43 45.584507 -122.576254 304 20ft 0kts
03-Jan-18 20:44 45.584507 -122.576254 304 20ft 0kts
03-Jan-18 20:45 45.584507 -122.576254 304 20ft 0kts
03-Jan-18 20:46 45.584507 -122.576254 304 20ft 0kts
03-Jan-18 20:47 45.584507 -122.576254 304 20ft 0kts
03-Jan-18 20:48 45.584507 -122.576254 304 20ft 0kts
03-Jan-18 20:49 45.584507 -122.576254 304 20ft 0kts
03-Jan-18 20:50 45.584507 -122.576254 304 20ft 0kts
03-Jan-18 20:51 45.584507 -122.576254 304 20ft 0kts

Navigation Log

Ident Type
Flight plan parsing failed, navigation log unavailable